createdAt,value
2023-05-14T00:01:42.755Z,65.50
2023-05-14T00:04:09.591Z,65.32
2023-05-14T00:06:36.273Z,65.26
2023-05-14T00:09:03.045Z,65.33
2023-05-14T00:11:29.731Z,64.84
2023-05-14T00:13:56.342Z,64.83
2023-05-14T00:16:22.986Z,65.04
2023-05-14T00:18:49.703Z,65.09
2023-05-14T00:21:16.342Z,65.11
2023-05-14T00:23:42.961Z,65.09
2023-05-14T00:26:09.557Z,64.98
2023-05-14T00:28:36.206Z,65.18
2023-05-14T00:31:02.831Z,65.38
2023-05-14T00:33:29.528Z,64.75
2023-05-14T00:35:56.120Z,64.74
2023-05-14T00:38:22.786Z,64.69
2023-05-14T00:40:49.470Z,64.83
2023-05-14T00:43:16.107Z,64.97
2023-05-14T00:45:42.697Z,64.99
2023-05-14T00:50:36.234Z,64.89
2023-05-14T00:53:02.847Z,65.36
2023-05-14T00:55:30.318Z,65.32
2023-05-14T00:57:56.971Z,65.17
2023-05-14T01:00:23.833Z,65.43
2023-05-14T01:02:50.661Z,65.38
2023-05-14T01:05:17.341Z,64.73
2023-05-14T01:07:57.992Z,64.31
2023-05-14T01:10:36.256Z,64.86
2023-05-14T01:13:10.966Z,65.01
2023-05-14T01:15:37.829Z,65.05
2023-05-14T01:18:07.035Z,64.67
2023-05-14T01:20:33.631Z,65.11
2023-05-14T01:23:00.328Z,64.52
2023-05-14T01:25:27.006Z,64.63
2023-05-14T01:28:01.239Z,64.86
2023-05-14T01:30:38.065Z,64.61
2023-05-14T01:33:10.803Z,64.65
2023-05-14T01:35:37.507Z,64.98
2023-05-14T01:38:05.366Z,64.88
2023-05-14T01:40:32.016Z,64.99
2023-05-14T01:42:58.741Z,65.11
2023-05-14T01:45:25.518Z,65.76
2023-05-14T01:47:52.245Z,65.48
2023-05-14T01:50:18.857Z,65.46
2023-05-14T01:52:45.483Z,65.43
2023-05-14T01:55:12.098Z,65.21
2023-05-14T01:57:38.706Z,65.34
2023-05-14T02:00:06.072Z,65.56
2023-05-14T02:02:32.736Z,65.42
2023-05-14T02:04:59.386Z,65.51
2023-05-14T02:07:26.006Z,65.60
2023-05-14T02:09:52.681Z,65.21
2023-05-14T02:12:19.330Z,65.30
2023-05-14T02:14:45.965Z,65.47
2023-05-14T02:17:12.571Z,65.04
2023-05-14T02:19:39.157Z,65.14
2023-05-14T02:22:05.765Z,65.18
2023-05-14T02:24:32.412Z,65.15
2023-05-14T02:26:59.088Z,65.51
2023-05-14T02:29:25.703Z,65.53
2023-05-14T02:31:52.405Z,64.57
2023-05-14T02:34:19.110Z,63.76
2023-05-14T02:36:45.766Z,64.17
2023-05-14T02:39:12.361Z,63.67
2023-05-14T02:41:38.982Z,62.26
2023-05-14T02:44:05.570Z,62.46
2023-05-14T02:46:32.360Z,62.65
2023-05-14T02:48:59.100Z,63.26
2023-05-14T02:51:25.718Z,62.66
2023-05-14T02:53:52.301Z,62.66
2023-05-14T02:56:18.952Z,63.46
2023-05-14T02:58:45.549Z,63.03
2023-05-14T03:01:12.285Z,62.30
2023-05-14T03:03:39.674Z,62.30
2023-05-14T03:06:06.813Z,61.14
2023-05-14T03:08:33.517Z,62.62
2023-05-14T03:11:00.158Z,63.09
2023-05-14T03:13:26.832Z,62.60
2023-05-14T03:15:53.493Z,63.42
2023-05-14T03:18:20.354Z,63.23
2023-05-14T03:20:46.931Z,63.60
2023-05-14T03:23:14.783Z,63.70
2023-05-14T03:25:41.503Z,63.81
2023-05-14T03:28:08.139Z,63.63
2023-05-14T03:30:34.892Z,64.27
2023-05-14T03:33:01.571Z,64.07
2023-05-14T03:35:28.222Z,62.84
2023-05-14T03:37:54.809Z,63.52
2023-05-14T03:40:21.721Z,63.31
2023-05-14T03:42:48.591Z,63.82
2023-05-14T03:45:15.230Z,63.84
2023-05-14T03:47:41.955Z,64.11
2023-05-14T03:50:08.936Z,63.24
2023-05-14T03:52:35.591Z,63.41
2023-05-14T03:55:02.340Z,63.36
2023-05-14T03:57:29.011Z,63.49
2023-05-14T03:59:55.601Z,62.70
2023-05-14T04:02:22.315Z,63.06
2023-05-14T04:04:49.097Z,63.58
2023-05-14T04:07:15.768Z,63.20
2023-05-14T04:09:42.377Z,63.59
2023-05-14T04:12:09.133Z,63.40
2023-05-14T04:14:35.760Z,63.46
2023-05-14T04:17:02.409Z,63.26
2023-05-14T04:19:29.081Z,63.52
2023-05-14T04:21:55.734Z,62.70
2023-05-14T04:24:22.366Z,63.14
2023-05-14T04:26:48.977Z,63.16
2023-05-14T04:29:15.581Z,62.93
2023-05-14T04:31:42.222Z,62.69
2023-05-14T04:34:08.893Z,62.68
2023-05-14T04:36:35.493Z,62.80
2023-05-14T04:39:02.111Z,62.88
2023-05-14T04:41:28.708Z,62.89
2023-05-14T04:43:59.831Z,62.78
2023-05-14T04:46:26.464Z,62.75
2023-05-14T04:48:53.064Z,62.89
2023-05-14T04:51:19.646Z,62.35
2023-05-14T04:53:46.230Z,62.65
2023-05-14T04:56:12.836Z,62.62
2023-05-14T04:58:39.432Z,62.33
2023-05-14T05:01:06.149Z,62.17
2023-05-14T05:03:32.914Z,62.29
2023-05-14T05:05:59.557Z,62.67
2023-05-14T05:08:26.379Z,62.86
2023-05-14T05:10:53.068Z,62.84
2023-05-14T05:13:19.719Z,62.19
2023-05-14T05:15:46.384Z,63.11
2023-05-14T05:18:13.105Z,62.60
2023-05-14T05:20:39.746Z,62.63
2023-05-14T05:23:06.378Z,59.96
2023-05-14T05:25:32.975Z,61.13
2023-05-14T05:27:59.565Z,59.75
2023-05-14T05:30:26.328Z,61.31
2023-05-14T05:32:53.089Z,61.29
2023-05-14T05:35:19.845Z,59.75
2023-05-14T05:37:46.472Z,59.30
2023-05-14T05:40:13.070Z,59.95
2023-05-14T05:42:40.241Z,60.09
2023-05-14T05:45:07.398Z,60.82
2023-05-14T05:47:34.005Z,61.22
2023-05-14T05:50:00.780Z,62.35
2023-05-14T05:52:27.540Z,62.36
2023-05-14T05:54:54.138Z,61.37
2023-05-14T05:57:20.824Z,62.27
2023-05-14T05:59:47.459Z,62.91
2023-05-14T06:02:14.180Z,59.03
2023-05-14T06:04:40.845Z,61.24
2023-05-14T06:07:07.502Z,62.24
2023-05-14T06:09:34.171Z,60.86
2023-05-14T06:12:00.770Z,61.54
2023-05-14T06:14:27.415Z,62.41
2023-05-14T06:16:54.133Z,60.05
2023-05-14T06:19:20.883Z,57.03
2023-05-14T06:21:47.557Z,59.75
2023-05-14T06:24:14.238Z,58.86
2023-05-14T06:26:40.851Z,59.87
2023-05-14T06:29:07.449Z,58.37
2023-05-14T06:31:34.061Z,59.81
2023-05-14T06:34:00.734Z,61.63
2023-05-14T06:36:27.321Z,59.16
2023-05-14T06:38:53.953Z,58.98
2023-05-14T06:41:20.568Z,57.82
2023-05-14T06:43:47.186Z,58.46
2023-05-14T06:46:13.777Z,58.77
2023-05-14T06:48:40.445Z,56.61
2023-05-14T06:51:07.085Z,57.09
2023-05-14T06:53:33.754Z,55.48
2023-05-14T06:56:00.407Z,56.71
2023-05-14T06:58:26.995Z,58.93
2023-05-14T07:00:53.600Z,60.03
2023-05-14T07:03:20.272Z,58.13
2023-05-14T07:05:46.864Z,57.58
2023-05-14T07:08:13.553Z,54.65
2023-05-14T07:10:40.143Z,56.31
2023-05-14T07:13:06.785Z,56.94
2023-05-14T07:15:33.393Z,59.11
2023-05-14T07:18:00.180Z,60.30
2023-05-14T07:20:27.166Z,59.88
2023-05-14T07:22:53.927Z,60.16
2023-05-14T07:25:20.526Z,60.83
2023-05-14T07:27:47.113Z,60.10
2023-05-14T07:30:13.800Z,60.88
2023-05-14T07:32:41.023Z,60.04
2023-05-14T07:35:08.618Z,52.76
2023-05-14T07:37:35.249Z,53.08
2023-05-14T07:40:01.891Z,53.59
2023-05-14T07:42:35.800Z,55.70
2023-05-14T07:45:04.469Z,54.01
2023-05-14T07:47:31.190Z,53.92
2023-05-14T07:49:57.936Z,51.69
2023-05-14T07:52:24.658Z,50.93
2023-05-14T07:54:51.330Z,51.65
2023-05-14T07:57:18.716Z,51.67
2023-05-14T07:59:45.394Z,52.91
2023-05-14T08:02:12.053Z,51.72
2023-05-14T08:04:39.443Z,50.73
2023-05-14T08:07:06.187Z,49.90
2023-05-14T08:09:32.812Z,50.58
2023-05-14T08:11:59.449Z,49.53
2023-05-14T08:14:26.089Z,47.61
2023-05-14T08:16:52.812Z,48.57
2023-05-14T08:19:19.682Z,50.03
2023-05-14T08:21:46.404Z,47.60
2023-05-14T08:24:13.077Z,51.11
2023-05-14T08:26:39.683Z,51.04
2023-05-14T08:29:06.893Z,51.15
2023-05-14T08:31:34.577Z,52.49
2023-05-14T08:34:01.449Z,49.35
2023-05-14T08:36:28.082Z,49.39
2023-05-14T08:38:54.740Z,48.49
2023-05-14T08:41:21.417Z,49.96
2023-05-14T08:44:00.179Z,47.28
2023-05-14T08:46:27.199Z,46.29
2023-05-14T08:49:01.460Z,45.04
2023-05-14T08:51:28.077Z,45.16
2023-05-14T08:53:54.995Z,47.47
2023-05-14T08:56:21.660Z,46.56
2023-05-14T08:58:48.457Z,46.50
2023-05-14T09:01:15.312Z,46.92
2023-05-14T09:03:41.943Z,46.53
2023-05-14T09:06:08.751Z,46.93
2023-05-14T09:08:35.649Z,45.20
2023-05-14T09:11:04.380Z,45.29
2023-05-14T09:13:31.088Z,46.07
2023-05-14T09:15:57.872Z,45.10
2023-05-14T09:18:25.224Z,45.43
2023-05-14T09:20:52.104Z,45.08
2023-05-14T09:23:18.773Z,45.64
2023-05-14T09:25:45.440Z,44.66
2023-05-14T09:28:12.104Z,46.26
2023-05-14T09:30:38.733Z,45.14
2023-05-14T09:33:05.379Z,44.34
2023-05-14T09:35:32.153Z,42.95
2023-05-14T09:37:58.776Z,44.62
2023-05-14T09:40:25.650Z,45.79
2023-05-14T09:42:52.437Z,46.67
2023-05-14T09:45:19.109Z,46.98
2023-05-14T09:47:45.863Z,46.38
2023-05-14T09:50:12.682Z,46.25
2023-05-14T09:52:39.351Z,46.53
2023-05-14T09:55:06.473Z,46.13
2023-05-14T09:57:33.127Z,47.45
2023-05-14T09:59:59.758Z,46.12
2023-05-14T10:02:30.282Z,46.72
2023-05-14T10:04:57.805Z,47.26
2023-05-14T10:07:27.378Z,47.34
2023-05-14T10:09:59.321Z,47.66
2023-05-14T10:12:26.202Z,47.61
2023-05-14T10:14:52.803Z,48.50
2023-05-14T10:17:22.378Z,47.67
2023-05-14T10:19:53.240Z,48.21
2023-05-14T10:22:22.901Z,47.90
2023-05-14T10:24:50.209Z,47.48
2023-05-14T10:27:16.948Z,46.67
2023-05-14T10:29:43.600Z,46.11
2023-05-14T10:32:10.255Z,45.65
2023-05-14T10:34:43.200Z,46.51
2023-05-14T10:37:19.417Z,47.98
2023-05-14T10:39:55.002Z,46.62
2023-05-14T10:42:34.944Z,45.80
2023-05-14T10:45:05.616Z,44.57
2023-05-14T10:47:32.292Z,45.01
2023-05-14T10:49:59.905Z,45.32
2023-05-14T10:52:26.594Z,43.78
2023-05-14T10:54:57.118Z,43.29
2023-05-14T10:57:28.701Z,42.40
2023-05-14T10:59:56.395Z,40.83
2023-05-14T11:02:30.131Z,41.26
2023-05-14T11:05:04.082Z,40.85
2023-05-14T11:07:31.998Z,42.44
2023-05-14T11:10:15.035Z,44.80
2023-05-14T11:12:43.427Z,44.05
2023-05-14T11:15:20.669Z,44.30
2023-05-14T11:17:47.817Z,43.16
2023-05-14T11:20:14.537Z,42.57
2023-05-14T11:22:41.683Z,43.42
2023-05-14T11:25:08.826Z,43.07
2023-05-14T11:27:39.038Z,42.95
2023-05-14T11:30:06.272Z,43.92
2023-05-14T11:32:33.034Z,42.47
2023-05-14T11:34:59.687Z,42.80
2023-05-14T11:37:26.315Z,43.33
2023-05-14T11:39:54.185Z,44.43
2023-05-14T11:42:21.310Z,43.96
2023-05-14T11:44:49.295Z,44.23
2023-05-14T11:47:17.056Z,44.36
2023-05-14T11:49:43.728Z,43.71
2023-05-14T11:52:10.493Z,44.78
2023-05-14T11:54:37.169Z,45.35
2023-05-14T11:57:08.514Z,45.24
2023-05-14T11:59:35.153Z,45.61
2023-05-14T12:02:01.980Z,44.19
2023-05-14T12:04:28.649Z,43.90
2023-05-14T12:06:57.337Z,43.46
2023-05-14T12:09:23.984Z,45.94
2023-05-14T12:11:50.994Z,45.63
2023-05-14T12:14:19.971Z,43.01
2023-05-14T12:16:46.808Z,42.41
2023-05-14T12:19:17.227Z,41.08
2023-05-14T12:21:44.251Z,40.78
2023-05-14T12:24:12.266Z,41.71
2023-05-14T12:26:38.929Z,42.04
2023-05-14T12:29:05.580Z,41.25
2023-05-14T12:31:33.277Z,41.70
2023-05-14T12:33:59.994Z,41.95
2023-05-14T12:36:26.665Z,43.01
2023-05-14T12:38:59.940Z,43.44
2023-05-14T12:41:26.611Z,43.66
2023-05-14T12:43:53.261Z,44.28
2023-05-14T12:46:19.979Z,44.25
2023-05-14T12:48:46.741Z,44.89
2023-05-14T12:51:13.410Z,43.53
2023-05-14T12:53:40.123Z,43.02
2023-05-14T12:56:06.829Z,42.93
2023-05-14T12:58:33.571Z,43.82
2023-05-14T13:01:00.232Z,43.67
2023-05-14T13:03:26.850Z,40.44
2023-05-14T13:05:53.758Z,40.70
2023-05-14T13:08:23.806Z,39.01
2023-05-14T13:10:53.916Z,40.56
2023-05-14T13:13:20.616Z,40.78
2023-05-14T13:15:47.242Z,34.85
2023-05-14T13:18:14.270Z,36.76
2023-05-14T13:20:43.102Z,38.69
2023-05-14T13:23:09.968Z,38.46
2023-05-14T13:25:36.623Z,37.28
2023-05-14T13:28:03.289Z,39.22
2023-05-14T13:30:29.970Z,41.49
2023-05-14T13:32:56.613Z,42.80
2023-05-14T13:35:23.361Z,42.77
2023-05-14T13:37:50.178Z,40.69
2023-05-14T13:40:16.810Z,39.25
2023-05-14T13:42:44.537Z,39.10
2023-05-14T13:45:11.341Z,40.73
2023-05-14T13:47:38.551Z,40.19
2023-05-14T13:50:07.926Z,40.16
2023-05-14T13:52:34.709Z,40.04
2023-05-14T13:55:01.373Z,41.69
2023-05-14T13:57:28.066Z,40.78
2023-05-14T13:59:54.761Z,44.09
2023-05-14T14:02:21.499Z,41.35
2023-05-14T14:04:48.241Z,42.04
2023-05-14T14:07:14.921Z,42.40
2023-05-14T14:09:41.770Z,45.21
2023-05-14T14:12:09.094Z,42.28
2023-05-14T14:14:35.786Z,42.00
2023-05-14T14:17:02.522Z,46.02
2023-05-14T14:19:29.872Z,44.79
2023-05-14T14:21:56.537Z,40.87
2023-05-14T14:24:23.300Z,42.75
2023-05-14T14:26:51.783Z,38.62
2023-05-14T14:29:18.498Z,39.34
2023-05-14T14:31:45.190Z,39.82
2023-05-14T14:34:11.970Z,41.56
2023-05-14T14:36:38.561Z,39.91
2023-05-14T14:39:05.194Z,40.41
2023-05-14T14:41:31.838Z,40.70
2023-05-14T14:43:58.484Z,42.41
2023-05-14T14:46:25.141Z,42.94
2023-05-14T14:48:51.889Z,40.17
2023-05-14T14:51:18.571Z,37.68
2023-05-14T14:53:45.250Z,42.87
2023-05-14T14:56:11.929Z,36.49
2023-05-14T14:58:38.571Z,39.24
2023-05-14T15:01:05.346Z,38.43
2023-05-14T15:03:32.176Z,40.39
2023-05-14T15:05:58.997Z,39.48
2023-05-14T15:08:26.222Z,36.29
2023-05-14T15:10:52.944Z,31.67
2023-05-14T15:13:19.628Z,33.10
2023-05-14T15:15:46.342Z,30.39
2023-05-14T15:18:13.010Z,28.66
2023-05-14T15:20:39.768Z,26.27
2023-05-14T15:23:06.411Z,30.40
2023-05-14T15:25:33.060Z,33.03
2023-05-14T15:27:59.721Z,32.52
2023-05-14T15:30:26.391Z,34.55
2023-05-14T15:32:53.083Z,35.96
2023-05-14T15:35:19.988Z,34.05
2023-05-14T15:37:46.647Z,31.68
2023-05-14T15:40:13.287Z,36.87
2023-05-14T15:42:41.112Z,29.86
2023-05-14T15:45:08.541Z,33.15
2023-05-14T15:47:35.958Z,35.76
2023-05-14T15:50:02.653Z,32.75
2023-05-14T15:52:29.279Z,35.23
2023-05-14T15:54:56.001Z,39.29
2023-05-14T15:57:23.192Z,38.10
2023-05-14T15:59:49.964Z,36.66
2023-05-14T16:02:16.574Z,38.74
2023-05-14T16:04:43.178Z,40.62
2023-05-14T16:07:09.970Z,45.94
2023-05-14T16:09:36.869Z,48.13
2023-05-14T16:12:04.831Z,50.07
2023-05-14T16:14:34.252Z,49.93
2023-05-14T16:17:00.945Z,49.79
2023-05-14T16:19:27.836Z,47.47
2023-05-14T16:21:54.484Z,41.67
2023-05-14T16:24:21.128Z,38.21
2023-05-14T16:26:47.756Z,40.61
2023-05-14T16:29:14.347Z,45.03
2023-05-14T16:31:40.972Z,42.35
2023-05-14T16:34:07.591Z,36.50
2023-05-14T16:36:34.213Z,42.05
2023-05-14T16:41:30.300Z,46.14
2023-05-14T16:43:56.942Z,48.39
2023-05-14T16:46:23.634Z,50.89
2023-05-14T16:48:50.292Z,48.78
2023-05-14T16:51:16.961Z,47.38
2023-05-14T16:53:43.578Z,49.81
2023-05-14T16:56:10.211Z,52.32
2023-05-14T16:58:36.861Z,53.34
2023-05-14T17:01:03.517Z,53.73
2023-05-14T17:03:30.128Z,51.76
2023-05-14T17:05:56.714Z,54.94
2023-05-14T17:08:23.326Z,53.16
2023-05-14T17:10:49.948Z,51.33
2023-05-14T17:13:16.574Z,52.75
2023-05-14T17:15:43.276Z,55.30
2023-05-14T17:18:09.963Z,50.39
2023-05-14T17:20:36.640Z,49.82
2023-05-14T17:23:03.255Z,49.04
2023-05-14T17:25:29.900Z,48.42
2023-05-14T17:27:56.558Z,50.00
2023-05-14T17:30:23.180Z,47.93
2023-05-14T17:32:51.103Z,48.51
2023-05-14T17:35:18.003Z,48.25
2023-05-14T17:37:44.683Z,49.78
2023-05-14T17:40:11.757Z,51.24
2023-05-14T17:42:38.399Z,48.11
2023-05-14T17:45:05.498Z,50.29
2023-05-14T17:47:32.239Z,50.12
2023-05-14T17:49:58.936Z,50.45
2023-05-14T17:52:25.619Z,50.88
2023-05-14T17:54:52.282Z,50.13
2023-05-14T17:57:18.939Z,51.33
2023-05-14T17:59:45.616Z,50.71
2023-05-14T18:02:12.260Z,49.95
2023-05-14T18:04:38.869Z,49.98
2023-05-14T18:07:05.470Z,52.19
2023-05-14T18:09:32.141Z,50.14
2023-05-14T18:11:58.779Z,52.07
2023-05-14T18:14:25.440Z,50.07
2023-05-14T18:16:52.151Z,49.44
2023-05-14T18:19:19.484Z,50.01
2023-05-14T18:21:46.096Z,51.11
2023-05-14T18:24:12.728Z,48.89
2023-05-14T18:26:39.429Z,49.77
2023-05-14T18:29:06.082Z,49.52
2023-05-14T18:31:32.764Z,47.24
2023-05-14T18:33:59.406Z,46.99
2023-05-14T18:36:26.030Z,48.00
2023-05-14T18:38:52.696Z,48.01
2023-05-14T18:41:19.325Z,48.62
2023-05-14T18:43:45.964Z,48.76
2023-05-14T18:46:12.657Z,49.11
2023-05-14T18:48:39.866Z,48.33
2023-05-14T18:51:06.535Z,48.42
2023-05-14T18:53:33.144Z,48.05
2023-05-14T18:55:59.928Z,48.41
2023-05-14T18:58:26.604Z,49.47
2023-05-14T19:00:53.295Z,50.70
2023-05-14T19:03:20.288Z,50.62
2023-05-14T19:05:46.998Z,51.23
2023-05-14T19:08:14.068Z,51.97
2023-05-14T19:10:40.692Z,54.51
2023-05-14T19:13:07.338Z,56.42
2023-05-14T19:15:33.976Z,56.04
2023-05-14T19:18:00.749Z,57.70
2023-05-14T19:20:27.490Z,56.93
2023-05-14T19:22:54.092Z,58.44
2023-05-14T19:25:20.746Z,57.33
2023-05-14T19:27:47.341Z,57.48
2023-05-14T19:30:13.982Z,58.02
2023-05-14T19:32:40.821Z,58.73
2023-05-14T19:35:07.647Z,58.39
2023-05-14T19:37:34.276Z,58.20
2023-05-14T19:40:00.859Z,57.20
2023-05-14T19:42:27.469Z,57.65
2023-05-14T19:44:54.059Z,56.77
2023-05-14T19:47:20.645Z,56.86
2023-05-14T19:49:48.526Z,57.08
2023-05-14T19:52:15.193Z,58.75
2023-05-14T19:54:41.840Z,58.93
2023-05-14T19:57:09.208Z,59.54
2023-05-14T19:59:35.842Z,57.81
2023-05-14T20:02:02.542Z,57.15
2023-05-14T20:04:29.207Z,58.27
2023-05-14T20:06:55.855Z,57.46
2023-05-14T20:09:22.692Z,57.82
2023-05-14T20:11:49.319Z,57.37
2023-05-14T20:14:16.002Z,57.97
2023-05-14T20:16:42.656Z,58.55
2023-05-14T20:19:09.338Z,58.75
2023-05-14T20:21:36.193Z,58.49
2023-05-14T20:24:02.848Z,59.00
2023-05-14T20:26:29.497Z,59.22
2023-05-14T20:28:56.169Z,60.05
2023-05-14T20:31:22.940Z,60.05
2023-05-14T20:33:49.663Z,59.68
2023-05-14T20:36:16.328Z,59.49
2023-05-14T20:38:42.993Z,60.68
2023-05-14T20:41:09.643Z,61.22
2023-05-14T20:43:36.353Z,61.07
2023-05-14T20:46:02.972Z,61.24
2023-05-14T20:48:29.645Z,61.01
2023-05-14T20:50:56.283Z,61.51
2023-05-14T20:53:22.910Z,61.83
2023-05-14T20:55:49.527Z,61.73
2023-05-14T20:58:16.166Z,62.09
2023-05-14T21:00:42.781Z,61.55
2023-05-14T21:03:09.813Z,61.27
2023-05-14T21:05:36.696Z,60.93
2023-05-14T21:08:03.350Z,60.58
2023-05-14T21:10:29.982Z,60.67
2023-05-14T21:12:56.691Z,60.61
2023-05-14T21:15:23.683Z,61.00
2023-05-14T21:17:50.656Z,60.96
2023-05-14T21:20:17.310Z,61.08
2023-05-14T21:22:43.964Z,60.77
2023-05-14T21:25:10.736Z,61.32
2023-05-14T21:27:37.402Z,61.40
2023-05-14T21:30:04.314Z,62.09
2023-05-14T21:32:31.023Z,62.54
2023-05-14T21:34:57.616Z,62.51
2023-05-14T21:37:24.234Z,62.38
2023-05-14T21:39:50.942Z,62.60
2023-05-14T21:42:17.538Z,62.16
2023-05-14T21:44:44.170Z,62.50
2023-05-14T21:47:10.821Z,62.64
2023-05-14T21:49:37.413Z,62.85
2023-05-14T21:52:04.222Z,62.39
2023-05-14T21:54:30.868Z,62.20
2023-05-14T21:56:57.560Z,61.60
2023-05-14T21:59:24.201Z,62.44
2023-05-14T22:02:06.272Z,60.51
2023-05-14T22:04:33.883Z,60.96
2023-05-14T22:07:00.519Z,61.03
2023-05-14T22:09:27.450Z,61.16
2023-05-14T22:11:54.118Z,62.21
2023-05-14T22:14:20.725Z,62.07
2023-05-14T22:16:47.406Z,61.74
2023-05-14T22:19:15.869Z,62.02
2023-05-14T22:21:42.563Z,62.24
2023-05-14T22:24:09.168Z,61.32
2023-05-14T22:26:35.816Z,61.97
2023-05-14T22:29:02.447Z,61.70
2023-05-14T22:31:29.359Z,61.93
2023-05-14T22:33:56.099Z,62.20
2023-05-14T22:36:22.744Z,62.26
2023-05-14T22:38:49.429Z,61.72
2023-05-14T22:41:16.073Z,61.04
2023-05-14T22:43:42.715Z,60.98
2023-05-14T22:46:09.356Z,61.02
2023-05-14T22:48:35.982Z,61.54
2023-05-14T22:51:02.575Z,61.32
2023-05-14T22:53:29.177Z,61.39
2023-05-14T22:55:55.809Z,60.84
2023-05-14T22:58:22.428Z,60.56
2023-05-14T23:00:49.034Z,61.14
2023-05-14T23:03:15.685Z,60.36
2023-05-14T23:05:42.332Z,60.18
2023-05-14T23:08:08.970Z,60.26
2023-05-14T23:10:35.665Z,60.79
2023-05-14T23:13:03.627Z,61.37
2023-05-14T23:15:30.263Z,61.46
2023-05-14T23:17:56.953Z,61.29
2023-05-14T23:20:23.615Z,61.38
2023-05-14T23:22:50.137Z,61.52
2023-05-14T23:25:16.749Z,61.55
2023-05-14T23:27:43.372Z,60.33
2023-05-14T23:30:10.471Z,55.90
2023-05-14T23:32:37.070Z,56.72
2023-05-14T23:35:03.911Z,59.99
2023-05-14T23:37:30.597Z,59.74
2023-05-14T23:39:57.199Z,60.07
2023-05-14T23:42:23.804Z,60.98
2023-05-14T23:44:50.428Z,60.98
2023-05-14T23:47:16.974Z,60.53
2023-05-14T23:49:43.525Z,61.22
2023-05-14T23:52:10.061Z,61.46
2023-05-14T23:54:36.694Z,61.59
2023-05-14T23:57:03.335Z,61.92
2023-05-14T23:59:29.945Z,61.99
